Time;durP1;ratioP1;P1;durP2;ratioP2;P2;SDS_P1;SDS_P2;PMS_P1;PMS_P2;Temp;Humidity;BMP_temperature;BMP_pressure;BME280_temperature;BME280_humidity;BME280_pressure;Samples;Min_cycle;Max_cycle;Signal;HPM_P1;HPM_P2
2022/06/08 19:01:57;;;;;;;6.70;6.17;;;;;;;23.14;57.78;99552.40;2534031;77;25513;-76
2022/06/08 19:05:25;;;;;;;6.75;6.25;;;;;;;23.06;57.57;99557.57;2491762;78;26267;-76
2022/06/08 19:09:17;;;;;;;9.90;7.78;;;;;;;22.98;58.00;99543.74;2472136;78;25675;-78
2022/06/08 19:12:42;;;;;;;6.97;6.47;;;;;;;22.93;58.30;99547.50;2440968;79;25683;-77
2022/06/08 19:16:14;;;;;;;7.87;7.12;;;;;;;22.85;58.62;99556.62;2440567;80;26295;-76
2022/06/08 19:23:46;;;;;;;7.08;6.50;;;;;;;22.76;59.05;99556.11;2400341;80;25235;-78
2022/06/08 19:27:14;;;;;;;7.17;6.47;;;;;;;22.72;59.21;99555.38;2398623;81;25950;-75
2022/06/08 19:30:48;;;;;;;6.80;6.30;;;;;;;22.69;59.43;99562.13;2397531;81;25605;-77
2022/06/08 19:34:16;;;;;;;8.28;7.30;;;;;;;22.67;59.49;99553.81;2406154;81;25636;-77
2022/06/08 19:37:37;;;;;;;9.18;8.30;;;;;;;22.66;59.71;99555.61;2396336;81;25907;-77
2022/06/08 19:41:02;;;;;;;12.93;8.40;;;;;;;22.62;59.88;99553.53;2401464;81;25664;-76
2022/06/08 19:44:28;;;;;;;16.77;10.15;;;;;;;22.62;59.89;99553.53;2396602;81;25649;-77
2022/06/08 19:47:49;;;;;;;29.15;14.23;;;;;;;22.60;59.99;99550.06;2389528;81;25820;-77
2022/06/08 19:51:14;;;;;;;30.48;18.95;;;;;;;22.52;60.13;99549.50;2403326;81;25755;-77
2022/06/08 19:54:37;;;;;;;46.60;21.77;;;;;;;22.51;60.60;99554.86;2382810;81;25725;-77
2022/06/08 19:58:09;;;;;;;51.68;24.43;;;;;;;22.48;60.69;99565.63;2353647;82;25768;-78
2022/06/08 20:01:52;;;;;;;59.25;28.92;;;;;;;22.46;60.84;99568.80;2290517;85;25752;-77
2022/06/08 20:05:18;;;;;;;50.95;23.98;;;;;;;22.44;60.93;99571.95;2285001;85;26420;-80
2022/06/08 20:09:18;;;;;;;47.30;22.73;;;;;;;22.42;60.92;99560.08;2296258;84;25795;-80
2022/06/08 20:13:25;;;;;;;47.53;21.50;;;;;;;22.45;60.98;99561.77;2289951;83;26160;-81
2022/06/08 20:16:57;;;;;;;41.40;21.05;;;;;;;22.21;61.26;99566.17;2278540;84;25360;-80
2022/06/08 20:20:54;;;;;;;36.73;19.82;;;;;;;22.17;61.75;99568.08;2295694;84;25764;-79
2022/06/08 20:24:17;;;;;;;31.33;18.30;;;;;;;22.09;61.69;99574.11;2313425;83;25897;-81
2022/06/08 20:27:42;;;;;;;29.07;17.42;;;;;;;22.05;61.97;99568.05;2338828;82;26483;-82
2022/06/08 20:31:14;;;;;;;36.60;17.67;;;;;;;22.01;62.20;99573.08;2343954;83;25886;-83
2022/06/08 20:34:55;;;;;;;30.85;16.55;;;;;;;22.00;62.35;99571.78;2302766;83;26128;-77
2022/06/08 20:43:16;;;;;;;25.75;15.08;;;;;;;21.98;62.78;99574.98;2262693;83;25829;-80
2022/06/08 20:47:35;;;;;;;15.65;12.88;;;;;;;22.13;62.79;99573.08;2295269;84;25886;-79
2022/06/08 20:56:09;;;;;;;14.25;11.35;;;;;;;22.13;62.40;99570.42;2213476;87;25963;-82
2022/06/08 21:00:31;;;;;;;13.93;10.28;;;;;;;22.00;62.55;99570.45;2276865;85;25957;-82
2022/06/08 21:12:59;;;;;;;10.78;9.88;;;;;;;21.62;63.27;99576.20;2240202;86;26492;-81
2022/06/08 21:17:24;;;;;;;9.68;8.70;;;;;;;21.56;63.56;99575.55;2265258;86;25805;-82
2022/06/08 21:21:15;;;;;;;;;;;;;;;;;;;;;
2022/06/08 21:24:48;;;;;;;9.80;8.93;;;;;;;21.57;63.83;99576.84;2370146;82;25901;-81
2022/06/08 21:32:48;;;;;;;10.63;9.03;;;;;;;21.59;63.87;99565.69;2293088;85;26862;-81
2022/06/08 21:36:38;;;;;;;10.08;8.58;;;;;;;21.57;63.86;99558.73;2223769;87;25741;-83
2022/06/08 21:40:45;;;;;;;;;;;;;;;;;;;;;
2022/06/08 21:43:59;;;;;;;10.65;8.50;;;;;;;21.55;63.95;99552.14;2154548;89;26131;-81
2022/06/08 21:47:48;;;;;;;9.78;8.65;;;;;;;21.59;63.98;99551.57;2152139;89;26030;-82
2022/06/08 21:51:45;;;;;;;9.03;8.23;;;;;;;21.59;63.95;99550.24;2143604;90;25808;-79
2022/06/08 21:55:26;;;;;;;9.10;8.30;;;;;;;21.57;63.99;99550.31;2134911;90;25795;-82
2022/06/08 21:58:53;;;;;;;10.08;7.90;;;;;;;21.59;64.01;99536.52;2127032;90;25851;-80
2022/06/08 22:02:32;;;;;;;8.93;8.00;;;;;;;21.54;63.86;99541.13;2107705;91;25704;-80
2022/06/08 22:06:15;;;;;;;13.10;7.70;;;;;;;21.49;64.06;99538.22;2152762;90;26219;-82
2022/06/08 22:10:28;;;;;;;6.58;6.08;;;;;;;21.39;64.09;99533.69;2118677;90;25709;-78
2022/06/08 22:14:04;;;;;;;7.33;6.72;;;;;;;21.36;64.29;99528.06;2146978;90;25972;-79
2022/06/08 22:17:37;;;;;;;9.35;7.12;;;;;;;21.41;64.36;99526.56;2161924;89;26192;-79
2022/06/08 22:21:13;;;;;;;7.58;6.12;;;;;;;21.52;64.20;99521.75;2219262;86;25737;-79
2022/06/08 22:24:38;;;;;;;7.17;6.05;;;;;;;21.56;64.08;99523.36;2252434;86;26336;-79
2022/06/08 22:33:12;;;;;;;9.75;6.15;;;;;;;21.67;63.88;99507.09;2303965;84;25969;-78
2022/06/08 22:36:58;;;;;;;;;;;;;;;;;;;;;
2022/06/08 22:40:55;;;;;;;7.67;6.83;;;;;;;21.69;63.45;99506.09;2346583;82;25907;-80
2022/06/08 22:44:42;;;;;;;7.97;6.03;;;;;;;21.64;63.34;99500.11;2341378;83;25787;-81
2022/06/08 22:48:20;;;;;;;7.90;7.30;;;;;;;21.63;63.39;99497.05;2308415;84;25744;-80
2022/06/08 22:57:08;;;;;;;6.37;5.50;;;;;;;21.69;63.25;99487.53;2255296;85;25819;-80
2022/06/08 23:05:48;;;;;;;6.78;6.17;;;;;;;21.69;63.08;99497.27;2276639;86;26057;-80
2022/06/08 23:09:31;;;;;;;;;;;;;;;;;;;;;
2022/06/08 23:12:58;;;;;;;10.03;6.97;;;;;;;21.41;63.29;99506.68;2016922;96;26383;-82
2022/06/08 23:21:10;;;;;;;8.90;7.15;;;;;;;21.19;63.65;99509.16;1955136;98;25701;-80
2022/06/08 23:25:17;;;;;;;9.33;6.35;;;;;;;21.11;64.00;99504.12;1895269;101;25858;-79
2022/06/08 23:29:47;;;;;;;7.65;6.62;;;;;;;21.07;64.13;99502.95;1886417;102;25835;-80
2022/06/08 23:33:48;;;;;;;11.63;7.20;;;;;;;21.10;64.32;99495.77;1888922;100;25811;-80
2022/06/08 23:37:18;;;;;;;8.45;6.92;;;;;;;21.21;64.31;99484.33;1917687;99;25882;-80
2022/06/08 23:40:43;;;;;;;7.42;6.85;;;;;;;21.28;64.14;99485.45;1940224;98;25664;-80
2022/06/08 23:44:36;;;;;;;8.28;6.50;;;;;;;21.31;64.08;99480.91;1955175;96;25944;-82
2022/06/08 23:48:21;;;;;;;7.37;6.67;;;;;;;21.37;63.96;99475.89;1986748;96;25720;-80
2022/06/08 23:51:45;;;;;;;9.38;6.65;;;;;;;21.36;63.85;99480.34;2009703;93;26284;-83
2022/06/08 23:55:48;;;;;;;7.53;6.83;;;;;;;21.36;63.82;99482.98;2107122;92;26106;-81
